Time;durP1;ratioP1;P1;durP2;ratioP2;P2;SDS_P1;SDS_P2;PMS_P1;PMS_P2;Temp;Humidity;BMP_temperature;BMP_pressure;BME280_temperature;BME280_humidity;BME280_pressure;Samples;Min_cycle;Max_cycle;Signal;HPM_P1;HPM_P2
2023/03/08 00:00:49;;;;;;;14.80;9.53;;;;;;;5.32;49.91;96266.31;6290477;28;20701;-36
2023/03/08 00:03:56;;;;;;;12.10;8.40;;;;;;;5.43;49.86;96263.59;6298782;28;20228;-36
2023/03/08 00:06:58;;;;;;;15.13;9.33;;;;;;;5.37;49.57;96267.22;6290006;28;20218;-36
2023/03/08 00:10:00;;;;;;;13.40;8.13;;;;;;;5.44;49.10;96269.69;6293194;28;20308;-36
2023/03/08 00:13:03;;;;;;;15.17;8.50;;;;;;;5.36;48.74;96270.88;6306922;28;20222;-36
2023/03/08 00:16:07;;;;;;;11.90;8.60;;;;;;;5.41;48.45;96270.16;6292206;28;20303;-36
2023/03/08 00:19:09;;;;;;;13.57;8.53;;;;;;;5.29;48.88;96278.19;6289429;28;20213;-36
2023/03/08 00:22:11;;;;;;;13.70;8.93;;;;;;;5.32;48.23;96288.28;6286473;28;20309;-36
2023/03/08 00:25:15;;;;;;;12.63;8.60;;;;;;;5.25;47.79;96290.25;6288666;28;20700;-36
2023/03/08 00:28:17;;;;;;;12.50;8.60;;;;;;;5.35;47.85;96293.06;6274249;28;20226;-36
2023/03/08 00:31:19;;;;;;;11.53;7.70;;;;;;;5.25;47.18;96298.19;6288548;28;20237;-36
2023/03/08 00:34:22;;;;;;;13.80;7.93;;;;;;;5.31;46.65;96301.69;6270965;28;20892;-36
2023/03/08 00:37:24;;;;;;;12.70;7.17;;;;;;;5.30;46.62;96300.91;6275821;28;20588;-36
2023/03/08 00:40:26;;;;;;;10.70;7.13;;;;;;;5.29;46.64;96294.03;6288201;28;20243;-35
2023/03/08 00:43:28;;;;;;;9.40;6.87;;;;;;;5.31;46.43;96306.97;6290536;28;20326;-36
2023/03/08 00:46:30;;;;;;;9.07;6.73;;;;;;;5.29;45.96;96301.94;6291428;28;20222;-37
2023/03/08 00:49:32;;;;;;;9.83;7.10;;;;;;;5.37;45.62;96301.53;6285211;28;20712;-36
2023/03/08 00:52:34;;;;;;;10.80;6.17;;;;;;;4.98;45.75;96245.28;6289059;28;20235;-36
2023/03/08 00:55:36;;;;;;;11.23;6.00;;;;;;;5.36;45.86;96296.50;6290247;28;20240;-36
2023/03/08 00:58:40;;;;;;;10.87;6.47;;;;;;;5.29;46.08;96288.75;6271022;28;20234;-36
2023/03/08 01:01:42;;;;;;;9.50;5.93;;;;;;;5.26;46.04;96281.28;6291725;28;21056;-36
2023/03/08 01:04:44;;;;;;;8.73;6.03;;;;;;;5.27;46.65;96300.56;6289644;28;20778;-36
2023/03/08 01:07:47;;;;;;;10.57;7.10;;;;;;;5.07;46.35;96262.28;6289662;28;21555;-36
2023/03/08 01:10:57;;;;;;;8.70;6.13;;;;;;;5.29;46.55;96296.66;6288135;28;20238;-36
2023/03/08 01:13:59;;;;;;;7.80;5.80;;;;;;;5.29;46.70;96291.38;6286844;28;20746;-36
2023/03/08 01:17:01;;;;;;;8.63;5.47;;;;;;;5.27;47.03;96293.47;6288132;28;20234;-36
2023/03/08 01:20:03;;;;;;;7.47;5.43;;;;;;;5.29;47.15;96285.31;6288444;28;20222;-36
2023/03/08 01:23:07;;;;;;;7.30;5.37;;;;;;;5.32;46.74;96300.66;6290714;28;20715;-36
2023/03/08 01:26:12;;;;;;;8.30;5.80;;;;;;;5.07;47.70;96275.47;6267802;28;20262;-36
2023/03/08 01:29:14;;;;;;;6.47;4.87;;;;;;;5.28;47.46;96296.91;6292883;28;20242;-36
2023/03/08 01:32:16;;;;;;;10.97;5.77;;;;;;;5.11;47.89;96291.63;6286352;28;20371;-36
2023/03/08 01:35:19;;;;;;;10.37;5.80;;;;;;;5.06;47.90;96300.28;6271563;28;20239;-36
2023/03/08 01:38:22;;;;;;;9.33;5.97;;;;;;;5.12;48.29;96295.88;6293538;28;20307;-36
2023/03/08 01:41:27;;;;;;;8.63;6.30;;;;;;;4.98;48.30;96286.69;6292092;28;20297;-36
2023/03/08 01:44:52;;;;;;;9.00;5.90;;;;;;;4.92;48.84;96294.50;6294750;28;20304;-36
2023/03/08 01:47:54;;;;;;;9.27;6.27;;;;;;;4.95;48.92;96295.88;6277416;28;20231;-36
2023/03/08 01:51:10;;;;;;;8.37;5.93;;;;;;;4.98;49.04;96276.94;6287485;28;20306;-36
2023/03/08 01:54:40;;;;;;;7.17;5.53;;;;;;;5.01;49.22;96292.28;6279710;28;20226;-36
2023/03/08 01:57:48;;;;;;;9.27;5.83;;;;;;;4.73;48.84;96243.03;6284832;28;20578;-36
2023/03/08 02:00:50;;;;;;;8.73;5.83;;;;;;;5.08;49.07;96292.13;6276170;28;20634;-36
2023/03/08 02:03:52;;;;;;;8.77;5.83;;;;;;;5.00;50.25;96287.25;6273475;28;20300;-36
2023/03/08 02:06:55;;;;;;;7.53;5.37;;;;;;;4.98;50.03;96289.34;6273815;28;20715;-36
2023/03/08 02:09:58;;;;;;;10.43;6.53;;;;;;;5.00;50.26;96287.25;6279589;28;20233;-36
2023/03/08 02:13:03;;;;;;;9.27;6.87;;;;;;;5.04;50.06;96289.16;6298507;28;20293;-36
2023/03/08 02:16:08;;;;;;;9.03;6.60;;;;;;;5.15;50.36;96298.03;6271549;28;20235;-36
2023/03/08 02:19:24;;;;;;;10.00;6.97;;;;;;;5.07;50.64;96295.78;6291920;28;20230;-36
2023/03/08 02:22:26;;;;;;;8.30;6.07;;;;;;;5.10;50.94;96295.31;6257466;28;20251;-36
2023/03/08 02:25:28;;;;;;;11.63;7.53;;;;;;;5.13;51.23;96308.84;6275610;28;20289;-36
2023/03/08 02:28:32;;;;;;;11.57;7.93;;;;;;;4.89;51.35;96267.81;6288781;28;20229;-36
2023/03/08 02:31:34;;;;;;;11.33;7.10;;;;;;;5.05;51.81;96319.00;6295393;28;20702;-36
2023/03/08 02:34:38;;;;;;;10.30;6.93;;;;;;;5.08;51.83;96313.25;6290467;28;20239;-36
2023/03/08 02:37:40;;;;;;;11.40;7.33;;;;;;;4.81;52.39;96278.75;6286766;28;20228;-36
2023/03/08 02:40:42;;;;;;;10.47;7.13;;;;;;;4.81;53.32;96289.31;6290692;28;20244;-36
2023/03/08 02:43:44;;;;;;;11.73;8.17;;;;;;;5.04;52.16;96334.03;6293010;28;20226;-36
2023/03/08 02:46:46;;;;;;;10.30;6.90;;;;;;;5.06;51.70;96328.50;6294530;28;20230;-36
2023/03/08 02:49:49;;;;;;;10.17;7.07;;;;;;;5.01;51.38;96329.22;6305611;28;20234;-36
2023/03/08 02:52:51;;;;;;;13.27;7.20;;;;;;;4.91;51.41;96329.84;6291250;28;20237;-36
2023/03/08 02:55:53;;;;;;;9.90;6.80;;;;;;;4.96;51.42;96328.34;6275677;28;20229;-36
2023/03/08 02:58:55;;;;;;;10.43;6.77;;;;;;;5.00;51.21;96334.75;6273070;28;20705;-36
2023/03/08 03:01:58;;;;;;;9.37;6.47;;;;;;;4.92;51.34;96343.84;6271899;28;20229;-36
2023/03/08 03:05:03;;;;;;;7.90;5.87;;;;;;;4.85;51.28;96346.66;6277791;28;20223;-36
2023/03/08 03:08:05;;;;;;;8.90;6.07;;;;;;;4.78;51.07;96332.81;6307264;28;20324;-36
2023/03/08 03:11:16;;;;;;;11.27;7.37;;;;;;;4.59;52.08;96300.56;6269144;28;20703;-36
2023/03/08 03:14:20;;;;;;;9.73;7.03;;;;;;;4.65;51.58;96327.84;6290574;28;20315;-36
2023/03/08 03:17:22;;;;;;;10.07;6.50;;;;;;;4.82;51.91;96365.59;6290260;28;20253;-36
2023/03/08 03:20:24;;;;;;;12.13;7.17;;;;;;;4.54;50.96;96352.44;6273336;28;20231;-36
2023/03/08 03:23:28;;;;;;;8.30;6.27;;;;;;;4.70;51.47;96375.41;6288953;28;20777;-36
2023/03/08 03:26:30;;;;;;;10.00;7.17;;;;;;;4.73;51.53;96389.94;6289715;28;20777;-36
2023/03/08 03:29:32;;;;;;;9.43;7.07;;;;;;;4.76;51.27;96377.09;6291589;28;20235;-36
2023/03/08 03:32:43;;;;;;;10.43;7.07;;;;;;;4.68;51.08;96398.59;6273259;28;20796;-36
2023/03/08 03:35:47;;;;;;;8.27;6.23;;;;;;;4.75;50.50;96406.34;6268129;28;20318;-36
2023/03/08 03:38:51;;;;;;;12.37;7.67;;;;;;;4.75;50.67;96398.44;6275681;28;20890;-35
2023/03/08 03:41:54;;;;;;;11.60;6.97;;;;;;;4.82;49.87;96439.44;6290519;28;20214;-36
2023/03/08 03:44:56;;;;;;;10.07;7.47;;;;;;;4.84;49.80;96418.94;6271601;28;20621;-36
2023/03/08 03:47:58;;;;;;;9.90;7.57;;;;;;;4.81;50.24;96418.59;6271266;28;20230;-36
2023/03/08 03:51:05;;;;;;;12.20;7.67;;;;;;;4.83;49.91;96422.63;6303871;28;20309;-36
2023/03/08 03:54:08;;;;;;;10.53;7.40;;;;;;;4.77;49.86;96426.16;6274928;28;20252;-36
2023/03/08 03:57:12;;;;;;;11.60;7.63;;;;;;;4.89;49.46;96428.78;6274551;28;20615;-36
2023/03/08 04:00:16;;;;;;;12.47;8.20;;;;;;;4.72;49.22;96415.53;6290482;28;20260;-36
2023/03/08 04:03:26;;;;;;;10.30;7.17;;;;;;;4.91;49.28;96448.59;6274071;28;20758;-36
2023/03/08 04:06:31;;;;;;;11.20;8.10;;;;;;;4.89;48.98;96463.09;6270780;28;20226;-36
2023/03/08 04:09:34;;;;;;;9.17;6.90;;;;;;;4.80;49.08;96469.75;6286790;28;20223;-36
2023/03/08 04:12:41;;;;;;;10.67;7.30;;;;;;;4.59;49.08;96421.09;6280567;28;20724;-36
2023/03/08 04:15:43;;;;;;;9.67;7.17;;;;;;;4.86;48.98;96476.72;6292668;28;20261;-36
2023/03/08 04:18:47;;;;;;;11.90;8.27;;;;;;;4.56;48.43;96426.81;6270529;28;20712;-36
2023/03/08 04:21:50;;;;;;;10.57;7.37;;;;;;;4.89;48.66;96484.19;6270410;28;20326;-37
2023/03/08 04:24:55;;;;;;;9.90;6.70;;;;;;;4.90;48.26;96475.22;6255150;28;20710;-36
2023/03/08 04:28:09;;;;;;;8.90;6.60;;;;;;;4.87;48.74;96479.13;6270930;28;20238;-36
2023/03/08 04:31:17;;;;;;;12.30;7.80;;;;;;;4.84;48.32;96476.19;6278019;28;20226;-36
2023/03/08 04:34:20;;;;;;;12.73;6.97;;;;;;;4.82;48.67;96483.50;6274588;28;20236;-36
2023/03/08 04:37:24;;;;;;;10.97;7.27;;;;;;;4.83;48.41;96472.75;6301822;28;20237;-36
2023/03/08 04:40:31;;;;;;;11.30;7.57;;;;;;;4.88;48.13;96464.13;6288471;28;20590;-36
2023/03/08 04:43:45;;;;;;;10.23;7.57;;;;;;;4.77;48.28;96462.31;6290225;28;20240;-36
2023/03/08 04:46:47;;;;;;;12.20;7.37;;;;;;;4.78;48.04;96458.63;6272696;28;20231;-36
2023/03/08 04:49:56;;;;;;;12.30;7.40;;;;;;;4.78;48.30;96451.53;6288244;28;20313;-36
2023/03/08 04:52:58;;;;;;;12.07;8.20;;;;;;;4.82;48.20;96462.41;6270109;28;20227;-36
2023/03/08 04:56:01;;;;;;;9.97;7.30;;;;;;;4.80;48.13;96461.84;6271782;28;20724;-36
2023/03/08 04:59:03;;;;;;;10.70;7.13;;;;;;;4.43;48.13;96398.09;6288060;28;20234;-36
2023/03/08 05:02:05;;;;;;;9.63;7.47;;;;;;;4.65;48.49;96441.25;6290157;28;20229;-36
2023/03/08 05:05:09;;;;;;;14.33;8.20;;;;;;;4.83;48.23;96464.81;6277121;28;20223;-36
2023/03/08 05:08:12;;;;;;;12.50;7.53;;;;;;;4.75;48.46;96465.19;6275456;28;20306;-36
2023/03/08 05:11:23;;;;;;;12.10;8.43;;;;;;;4.76;48.16;96466.78;6275736;28;20316;-36
2023/03/08 05:14:25;;;;;;;10.87;7.30;;;;;;;4.75;49.04;96481.00;6292330;28;20266;-36
2023/03/08 05:17:28;;;;;;;10.17;7.33;;;;;;;4.74;48.16;96471.50;6274821;28;20242;-36
2023/03/08 05:20:30;;;;;;;11.40;6.97;;;;;;;4.73;48.68;96469.09;6275037;28;20245;-36
2023/03/08 05:23:33;;;;;;;12.63;7.63;;;;;;;4.81;48.10;96468.72;6292971;28;20640;-36
2023/03/08 05:26:35;;;;;;;11.40;7.13;;;;;;;4.83;48.34;96469.31;6291346;28;20233;-36
2023/03/08 05:29:37;;;;;;;10.40;7.60;;;;;;;4.77;48.47;96464.94;6278186;28;20231;-36
2023/03/08 05:32:40;;;;;;;9.27;6.90;;;;;;;4.87;48.78;96465.94;6276005;28;20225;-36
2023/03/08 05:35:43;;;;;;;10.47;7.30;;;;;;;4.82;48.77;96457.13;6272557;28;20222;-36
2023/03/08 05:38:46;;;;;;;11.47;8.07;;;;;;;4.50;49.33;96423.28;6307444;28;20226;-36
2023/03/08 05:41:49;;;;;;;12.93;6.87;;;;;;;4.75;49.01;96469.66;6276914;28;20328;-36
2023/03/08 05:44:58;;;;;;;10.87;7.40;;;;;;;4.69;48.92;96455.59;6275521;28;20214;-36
2023/03/08 05:48:04;;;;;;;10.43;6.97;;;;;;;4.64;48.96;96442.28;6291045;28;20257;-36
2023/03/08 05:51:18;;;;;;;9.77;6.90;;;;;;;4.64;48.51;96423.84;6276895;28;20218;-36
2023/03/08 05:54:21;;;;;;;9.90;7.40;;;;;;;4.83;48.73;96475.38;6272013;28;20224;-36
2023/03/08 05:57:27;;;;;;;9.20;6.93;;;;;;;4.75;48.24;96452.00;6280946;28;20247;-36
2023/03/08 06:00:30;;;;;;;10.30;6.97;;;;;;;4.80;48.56;96477.69;6274098;28;20622;-36
2023/03/08 06:03:32;;;;;;;10.33;6.80;;;;;;;4.85;48.43;96486.50;6291139;28;20372;-36
2023/03/08 06:06:34;;;;;;;11.30;7.27;;;;;;;4.83;48.00;96464.03;6292693;28;20230;-36
2023/03/08 06:09:38;;;;;;;9.70;6.23;;;;;;;4.98;48.55;96508.38;6275688;28;20424;-36
2023/03/08 06:12:44;;;;;;;11.80;6.60;;;;;;;5.04;48.62;96488.97;6274007;28;20336;-36
2023/03/08 06:15:57;;;;;;;9.93;6.63;;;;;;;4.95;48.37;96495.66;6279909;28;20270;-36
2023/03/08 06:19:01;;;;;;;9.57;6.60;;;;;;;5.04;48.49;96508.22;6305923;28;20269;-36
2023/03/08 06:22:05;;;;;;;10.50;6.93;;;;;;;5.09;47.76;96510.16;6274326;28;20592;-36
2023/03/08 06:25:07;;;;;;;9.87;6.27;;;;;;;5.17;47.57;96505.31;6306365;28;20232;-36
2023/03/08 06:28:11;;;;;;;10.20;6.87;;;;;;;5.20;47.19;96501.38;6272367;28;20246;-36
2023/03/08 06:31:18;;;;;;;9.37;6.30;;;;;;;5.27;47.49;96515.25;6276014;28;20222;-36
2023/03/08 06:34:20;;;;;;;10.87;6.90;;;;;;;5.11;46.92;96487.75;6279207;28;20732;-36
2023/03/08 06:37:25;;;;;;;8.07;6.00;;;;;;;5.43;46.98;96524.25;6289541;28;20345;-36
2023/03/08 06:40:27;;;;;;;10.40;6.67;;;;;;;5.34;47.39;96515.91;6275364;28;20235;-36
2023/03/08 06:43:30;;;;;;;7.27;4.83;;;;;;;5.44;47.42;96521.38;6291099;28;20580;-36
2023/03/08 06:46:32;;;;;;;8.33;5.53;;;;;;;5.51;46.40;96526.50;6294170;28;20470;-36
2023/03/08 06:49:34;;;;;;;10.43;6.10;;;;;;;5.72;46.17;96534.78;6291982;28;20234;-36
2023/03/08 06:52:37;;;;;;;11.10;6.23;;;;;;;5.66;46.37;96525.94;6272354;28;20703;-36
2023/03/08 06:55:41;;;;;;;8.23;5.83;;;;;;;5.65;46.38;96504.03;6292880;28;20331;-36
2023/03/08 06:58:43;;;;;;;11.63;6.40;;;;;;;5.77;46.42;96511.88;6271679;28;20719;-36
2023/03/08 07:01:45;;;;;;;9.93;6.53;;;;;;;5.81;46.48;96517.47;6292110;28;20224;-36
2023/03/08 07:04:47;;;;;;;8.37;5.53;;;;;;;5.88;46.51;96516.28;6291198;28;20292;-36
2023/03/08 07:07:50;;;;;;;9.90;6.17;;;;;;;5.87;46.21;96525.28;6293833;28;20603;-36
2023/03/08 07:10:52;;;;;;;8.67;5.77;;;;;;;5.93;45.71;96516.41;6289882;28;20241;-36
2023/03/08 07:13:56;;;;;;;9.53;6.57;;;;;;;6.02;45.42;96522.09;6289653;28;20230;-36
2023/03/08 07:16:58;;;;;;;9.40;6.17;;;;;;;6.11;45.38;96522.50;6289914;28;20326;-36
2023/03/08 07:20:04;;;;;;;8.67;5.73;;;;;;;6.28;44.63;96517.19;6271697;28;20376;-36
2023/03/08 07:23:06;;;;;;;8.70;5.87;;;;;;;6.45;44.45;96516.13;6272988;28;20230;-36
2023/03/08 07:26:08;;;;;;;8.37;5.63;;;;;;;6.54;44.65;96497.94;6287941;28;20223;-36
2023/03/08 07:29:10;;;;;;;8.17;5.30;;;;;;;6.54;45.19;96505.91;6290564;28;20627;-36
2023/03/08 07:32:13;;;;;;;8.33;6.17;;;;;;;6.59;44.79;96513.91;6290316;28;20778;-36
2023/03/08 07:35:15;;;;;;;7.50;5.60;;;;;;;6.60;44.08;96498.81;6289829;28;20331;-36
2023/03/08 07:38:17;;;;;;;8.43;5.87;;;;;;;6.39;44.38;96461.53;6286708;28;20365;-36
2023/03/08 07:41:19;;;;;;;9.60;5.77;;;;;;;6.76;43.43;96508.56;6293095;28;20234;-36
2023/03/08 07:44:21;;;;;;;7.93;5.93;;;;;;;6.85;43.23;96501.00;6270849;28;20242;-36
2023/03/08 07:47:23;;;;;;;9.57;4.97;;;;;;;6.86;42.82;96503.41;6290983;28;20241;-36
2023/03/08 07:50:26;;;;;;;7.47;5.27;;;;;;;6.66;42.72;96458.97;6285980;28;20235;-36
2023/03/08 07:53:28;;;;;;;7.93;5.13;;;;;;;6.81;42.51;96484.81;6294709;28;20240;-36
2023/03/08 07:56:31;;;;;;;7.83;5.10;;;;;;;7.16;41.69;96487.03;6287008;28;20614;-36
2023/03/08 07:59:33;;;;;;;7.03;5.40;;;;;;;7.01;41.74;96457.75;6292613;28;20233;-36
2023/03/08 08:02:36;;;;;;;6.53;4.90;;;;;;;7.46;40.90;96459.25;6287172;28;20228;-36
2023/03/08 08:05:38;;;;;;;6.83;5.10;;;;;;;8.28;40.59;96464.09;6289128;28;20374;-36
2023/03/08 08:08:40;;;;;;;7.10;4.57;;;;;;;9.08;38.76;96469.25;6269724;28;20245;-36
2023/03/08 08:11:42;;;;;;;9.03;5.37;;;;;;;10.53;35.49;96470.56;6269989;28;20234;-36
2023/03/08 08:14:44;;;;;;;6.33;4.93;;;;;;;12.23;32.64;96468.50;6287792;28;20338;-36
2023/03/08 08:17:47;;;;;;;7.53;5.82;;;;;;;15.00;28.11;96464.16;6284170;28;20453;-36
2023/03/08 08:20:49;;;;;;;7.33;5.83;;;;;;;16.92;25.03;96465.19;6289484;28;20235;-36
2023/03/08 08:23:52;;;;;;;7.53;5.67;;;;;;;16.44;24.52;96439.81;6292422;28;20313;-36
2023/03/08 08:26:54;;;;;;;7.93;5.70;;;;;;;15.11;26.17;96438.69;6287121;28;20238;-36
2023/03/08 08:29:56;;;;;;;5.97;4.90;;;;;;;14.55;27.65;96439.84;6292910;28;20308;-36
2023/03/08 08:33:00;;;;;;;5.87;4.60;;;;;;;15.81;26.29;96442.75;6289310;28;20307;-36
2023/03/08 08:36:05;;;;;;;6.37;5.60;;;;;;;15.72;26.22;96451.56;6290236;28;20234;-36
2023/03/08 08:39:07;;;;;;;7.90;4.73;;;;;;;14.86;27.67;96413.19;6273559;28;20355;-36
2023/03/08 08:42:09;;;;;;;7.47;6.03;;;;;;;13.79;27.93;96412.47;6289914;28;20235;-36
2023/03/08 08:45:11;;;;;;;6.77;5.40;;;;;;;13.57;29.06;96445.22;6293375;28;20209;-36
2023/03/08 08:48:13;;;;;;;7.03;6.13;;;;;;;14.41;27.80;96437.13;6285237;28;20584;-35
2023/03/08 08:51:15;;;;;;;6.87;5.30;;;;;;;13.66;29.42;96438.94;6294170;28;20267;-36
2023/03/08 08:54:18;;;;;;;7.20;4.73;;;;;;;13.41;29.64;96433.97;6277159;28;20218;-35
2023/03/08 08:57:20;;;;;;;6.97;4.53;;;;;;;13.18;30.13;96446.28;6294591;28;20307;-35
2023/03/08 09:00:22;;;;;;;7.00;5.20;;;;;;;12.47;30.30;96453.31;6307951;28;20222;-36
2023/03/08 09:03:24;;;;;;;5.30;4.33;;;;;;;12.29;30.63;96472.72;6294926;28;20366;-36
2023/03/08 09:06:27;;;;;;;6.53;4.90;;;;;;;12.20;32.04;96479.75;6294391;28;20237;-35
2023/03/08 09:09:29;;;;;;;7.20;5.10;;;;;;;11.86;31.88;96488.56;6290867;28;20840;-35
2023/03/08 09:12:31;;;;;;;6.63;4.87;;;;;;;11.57;32.58;96483.94;6292436;28;20657;-35
2023/03/08 09:15:35;;;;;;;6.90;5.13;;;;;;;11.16;32.60;96438.06;6292845;28;20231;-35
2023/03/08 09:18:38;;;;;;;6.47;4.83;;;;;;;11.09;33.17;96458.91;6292269;28;20247;-35
2023/03/08 09:21:40;;;;;;;7.43;5.00;;;;;;;10.77;33.83;96457.44;6293143;28;20247;-35
2023/03/08 09:24:42;;;;;;;5.83;4.43;;;;;;;10.64;34.90;96451.91;6287621;28;20237;-35
2023/03/08 09:27:44;;;;;;;6.83;4.43;;;;;;;10.62;34.20;96444.19;6276500;28;20859;-35
2023/03/08 09:30:46;;;;;;;6.60;4.20;;;;;;;10.63;34.33;96445.00;6295820;28;20252;-35
2023/03/08 09:33:53;;;;;;;5.57;4.10;;;;;;;10.65;34.51;96448.19;6292763;28;20726;-35
2023/03/08 09:36:55;;;;;;;5.57;4.30;;;;;;;10.70;34.65;96440.97;6308370;28;20743;-35
2023/03/08 09:39:57;;;;;;;5.30;4.10;;;;;;;10.76;34.22;96455.06;6294171;28;20734;-35
2023/03/08 09:43:05;;;;;;;4.83;3.97;;;;;;;10.55;33.97;96422.41;6294719;28;20244;-35
2023/03/08 09:46:13;;;;;;;7.30;4.77;;;;;;;10.65;34.23;96443.66;6301957;28;20521;-35
2023/03/08 09:49:20;;;;;;;5.63;4.47;;;;;;;10.70;34.64;96421.53;6289470;28;20241;-36
2023/03/08 09:52:39;;;;;;;7.00;4.77;;;;;;;10.70;34.47;96430.31;6295351;28;20756;-35
2023/03/08 09:55:47;;;;;;;5.70;4.77;;;;;;;10.50;34.49;96395.78;6293354;28;20242;-36
2023/03/08 09:58:57;;;;;;;8.60;4.60;;;;;;;10.46;35.17;96424.81;6296341;28;20273;-35
2023/03/08 10:02:17;;;;;;;7.33;5.03;;;;;;;10.31;35.78;96422.19;6291801;28;20312;-35
2023/03/08 10:05:32;;;;;;;8.53;5.10;;;;;;;10.19;37.34;96408.34;6292856;28;20239;-36
2023/03/08 10:08:55;;;;;;;7.03;4.60;;;;;;;10.22;36.38;96402.50;6291415;28;20222;-36
2023/03/08 10:12:19;;;;;;;8.43;5.40;;;;;;;10.12;36.41;96399.88;6289363;28;20254;-35
2023/03/08 10:15:23;;;;;;;9.03;5.90;;;;;;;9.95;36.62;96378.88;6291647;28;20290;-35
2023/03/08 10:18:35;;;;;;;7.80;5.50;;;;;;;10.11;37.00;96395.63;6288725;28;20603;-35
2023/03/08 10:21:40;;;;;;;7.23;5.33;;;;;;;10.04;37.33;96385.25;6269809;28;20278;-35
2023/03/08 10:24:52;;;;;;;8.20;5.10;;;;;;;9.76;37.30;96342.22;6291989;28;20252;-35
2023/03/08 10:27:57;;;;;;;6.97;5.23;;;;;;;10.01;38.05;96389.25;6289330;28;20241;-35
2023/03/08 10:31:03;;;;;;;9.83;5.67;;;;;;;9.97;37.92;96398.81;6291925;28;20269;-35
2023/03/08 10:34:12;;;;;;;10.47;5.83;;;;;;;10.02;38.48;96388.19;6292462;28;20336;-35
2023/03/08 10:37:15;;;;;;;7.77;6.40;;;;;;;10.01;38.59;96375.94;6295424;28;20241;-35
2023/03/08 10:40:20;;;;;;;11.13;6.63;;;;;;;10.03;38.87;96363.16;6291186;28;20565;-35
2023/03/08 10:43:33;;;;;;;7.60;6.37;;;;;;;9.88;39.23;96363.19;6289224;28;20261;-35
2023/03/08 10:46:45;;;;;;;9.97;7.10;;;;;;;9.92;39.59;96353.63;6291767;28;20232;-35
2023/03/08 10:49:48;;;;;;;9.67;7.60;;;;;;;9.88;39.77;96333.94;6291063;28;20231;-35
2023/03/08 10:52:51;;;;;;;10.93;7.85;;;;;;;10.64;38.80;96335.53;6286556;28;20441;-35
2023/03/08 10:55:53;;;;;;;11.20;8.30;;;;;;;10.43;39.10;96334.81;6287936;28;20236;-36
2023/03/08 10:58:56;;;;;;;9.43;7.17;;;;;;;10.39;39.42;96323.13;6289583;28;20632;-36
2023/03/08 11:02:21;;;;;;;12.23;8.27;;;;;;;10.39;40.11;96319.69;6273485;28;20240;-35
2023/03/08 11:05:25;;;;;;;10.30;7.17;;;;;;;10.50;39.40;96310.59;6285322;28;20230;-35
2023/03/08 11:08:33;;;;;;;14.07;8.50;;;;;;;10.61;39.18;96298.81;6292208;28;20231;-35
2023/03/08 11:11:41;;;;;;;15.27;9.30;;;;;;;10.61;39.00;96276.69;6287178;28;20838;-35
2023/03/08 11:14:44;;;;;;;12.17;8.43;;;;;;;10.68;38.67;96262.00;6291774;28;20237;-35
2023/03/08 11:18:18;;;;;;;11.27;8.73;;;;;;;10.61;39.09;96212.78;6290599;28;20586;-36
2023/03/08 11:21:31;;;;;;;13.77;9.77;;;;;;;10.82;38.95;96217.66;6286831;28;22406;-35
2023/03/08 11:25:18;;;;;;;10.97;8.10;;;;;;;10.93;37.99;96194.41;6291611;28;20233;-35
2023/03/08 11:28:51;;;;;;;11.67;8.77;;;;;;;11.03;37.97;96196.19;6288309;28;20240;-35
2023/03/08 11:32:04;;;;;;;14.03;8.47;;;;;;;11.05;37.57;96184.16;6289047;28;20233;-36
2023/03/08 11:35:25;;;;;;;11.10;7.87;;;;;;;10.89;37.77;96185.41;6290393;28;20713;-36
2023/03/08 11:38:29;;;;;;;12.27;8.73;;;;;;;10.87;37.82;96154.78;6285952;28;20457;-35
2023/03/08 11:41:44;;;;;;;10.97;8.90;;;;;;;11.06;37.10;96159.09;6291682;28;20312;-35
2023/03/08 11:45:05;;;;;;;13.40;9.13;;;;;;;11.08;37.42;96148.16;6278186;28;20233;-36
2023/03/08 11:48:29;;;;;;;12.63;8.27;;;;;;;11.16;37.78;96134.22;6287511;28;20237;-36
2023/03/08 11:51:58;;;;;;;12.83;8.33;;;;;;;10.98;38.54;96098.44;6289944;28;20610;-36
2023/03/08 11:55:06;;;;;;;13.40;9.73;;;;;;;11.21;38.77;96114.72;6287458;28;20240;-36
2023/03/08 11:58:12;;;;;;;14.70;10.00;;;;;;;11.09;38.81;96093.81;6293957;28;20228;-35
2023/03/08 12:01:28;;;;;;;13.47;9.13;;;;;;;11.01;38.82;96071.22;6283518;28;20604;-36
2023/03/08 12:04:39;;;;;;;12.80;9.50;;;;;;;10.85;38.70;96051.16;6291446;28;20313;-36
2023/03/08 12:07:56;;;;;;;12.07;8.80;;;;;;;10.79;39.40;96057.63;6271493;28;20702;-36
2023/03/08 12:11:09;;;;;;;13.97;9.43;;;;;;;10.80;40.17;96075.19;6289308;28;20236;-36
2023/03/08 12:14:33;;;;;;;11.57;9.63;;;;;;;10.62;40.71;96074.03;6289366;28;20346;-36
2023/03/08 12:17:40;;;;;;;13.73;10.50;;;;;;;10.43;41.14;96081.13;6292380;28;20241;-36
2023/03/08 12:20:43;;;;;;;15.03;9.50;;;;;;;10.21;41.79;96065.59;6286575;28;20709;-36
2023/03/08 12:23:50;;;;;;;19.37;9.87;;;;;;;10.16;41.47;96066.44;6290389;28;20311;-35
2023/03/08 12:27:15;;;;;;;16.53;9.33;;;;;;;10.05;41.64;96073.69;6287158;28;20240;-35
2023/03/08 12:30:42;;;;;;;14.60;9.07;;;;;;;9.98;42.13;96051.13;6289451;28;20764;-36
2023/03/08 12:33:47;;;;;;;16.50;9.90;;;;;;;9.94;42.16;96060.72;6267492;28;20358;-36
2023/03/08 12:36:49;;;;;;;15.93;10.03;;;;;;;9.86;42.62;96070.09;6287039;28;20236;-35
2023/03/08 12:40:02;;;;;;;12.50;9.20;;;;;;;9.95;42.05;96065.78;6288594;28;20721;-35
2023/03/08 12:43:11;;;;;;;13.67;9.17;;;;;;;9.95;42.36;96062.31;6287431;28;20704;-35
2023/03/08 12:46:13;;;;;;;16.77;10.07;;;;;;;10.06;42.75;96059.31;6289834;28;20223;-35
2023/03/08 12:49:26;;;;;;;15.27;9.93;;;;;;;10.03;42.42;96019.97;6287811;28;20244;-35
2023/03/08 12:52:35;;;;;;;15.57;9.83;;;;;;;10.32;42.49;96041.28;6288580;28;20237;-35
2023/03/08 12:55:37;;;;;;;16.50;10.23;;;;;;;10.24;42.63;96017.94;6285426;28;20231;-35
2023/03/08 12:59:08;;;;;;;11.20;8.80;;;;;;;10.43;43.60;96044.66;6289108;28;20713;-35
2023/03/08 13:02:29;;;;;;;15.47;10.30;;;;;;;10.14;43.45;96025.19;6288533;28;20331;-36
2023/03/08 13:05:35;;;;;;;13.27;9.23;;;;;;;10.00;43.90;95995.78;6289387;28;20636;-35
2023/03/08 13:08:46;;;;;;;16.13;9.10;;;;;;;10.39;43.88;96032.19;6290915;28;20373;-35
2023/03/08 13:12:14;;;;;;;13.67;9.67;;;;;;;10.35;44.09;96025.84;6288576;28;20562;-35
2023/03/08 13:15:21;;;;;;;11.40;8.27;;;;;;;10.47;44.06;96015.59;6283470;28;20232;-35
2023/03/08 13:18:23;;;;;;;15.23;11.20;;;;;;;10.51;44.15;96019.28;6268912;28;20234;-35
2023/03/08 13:21:34;;;;;;;14.10;10.07;;;;;;;10.59;44.75;96026.69;6288690;28;20310;-35
2023/03/08 13:25:00;;;;;;;16.33;11.63;;;;;;;10.42;45.55;96019.13;6273921;28;20239;-35
2023/03/08 13:28:08;;;;;;;15.37;10.63;;;;;;;10.63;45.50;96018.91;6292869;28;20224;-35
2023/03/08 13:31:19;;;;;;;16.83;10.23;;;;;;;10.50;45.14;95986.56;6288402;28;20233;-36
2023/03/08 13:34:32;;;;;;;14.63;9.60;;;;;;;10.90;44.56;96007.69;6290935;28;20756;-36
2023/03/08 13:37:34;;;;;;;17.70;9.87;;;;;;;10.77;44.96;95950.56;6292676;28;20324;-35
2023/03/08 13:40:36;;;;;;;18.43;10.70;;;;;;;11.13;44.54;96006.06;6292391;28;20235;-35
2023/03/08 13:43:38;;;;;;;13.80;10.17;;;;;;;11.13;44.10;95995.41;6292078;28;20231;-35
2023/03/08 13:46:41;;;;;;;15.60;10.73;;;;;;;11.17;44.48;95996.41;6295416;28;20225;-36
2023/03/08 13:49:44;;;;;;;14.30;10.03;;;;;;;11.28;45.40;96005.88;6292144;28;20228;-36
2023/03/08 13:52:47;;;;;;;14.47;10.27;;;;;;;11.26;44.42;95992.84;6293875;28;20378;-36
2023/03/08 13:55:52;;;;;;;14.10;10.70;;;;;;;11.35;44.76;95980.44;6292853;28;20236;-36
2023/03/08 13:58:57;;;;;;;16.10;10.70;;;;;;;11.29;44.42;95960.28;6295199;28;20752;-36
2023/03/08 14:02:00;;;;;;;12.90;9.83;;;;;;;11.45;44.36;95962.72;6291718;28;20226;-36
2023/03/08 14:05:19;;;;;;;11.97;9.73;;;;;;;11.61;44.40;95974.75;6292952;28;20696;-36
2023/03/08 14:08:24;;;;;;;14.90;10.53;;;;;;;11.62;44.53;95978.97;6292113;28;20707;-36
2023/03/08 14:11:35;;;;;;;12.93;10.07;;;;;;;11.59;44.64;95983.03;6290541;28;20308;-35
2023/03/08 14:14:39;;;;;;;14.13;9.70;;;;;;;11.69;44.54;95962.63;6288850;28;20244;-35
2023/03/08 14:17:41;;;;;;;11.97;9.40;;;;;;;11.73;44.51;95963.63;6275238;28;20236;-36
2023/03/08 14:20:43;;;;;;;14.93;9.93;;;;;;;11.76;44.47;95965.72;6289435;28;20229;-36
2023/03/08 14:23:49;;;;;;;13.07;10.03;;;;;;;11.73;44.27;95960.97;6288346;28;20290;-36
2023/03/08 14:27:02;;;;;;;13.67;9.63;;;;;;;11.67;44.45;95928.22;6287728;28;20287;-36
2023/03/08 14:30:21;;;;;;;16.57;9.83;;;;;;;11.87;44.25;95962.63;6289753;28;20230;-38
2023/03/08 14:33:24;;;;;;;15.73;9.77;;;;;;;11.88;44.19;95958.88;6293494;28;20719;-36
2023/03/08 14:36:51;;;;;;;10.50;8.50;;;;;;;11.89;44.50;95943.66;6290316;28;20308;-36